sensor_id;sensor_type;location;lat;lon;timestamp;P1;durP1;ratioP1;P2;durP2;ratioP2
9388;SDS011;4734;52.778;6.798;2023-12-29T00:00:36;6.95;;;2.33;;
9388;SDS011;4734;52.778;6.798;2023-12-29T00:03:22;4.50;;;1.95;;
9388;SDS011;4734;52.778;6.798;2023-12-29T00:06:07;3.92;;;1.70;;
9388;SDS011;4734;52.778;6.798;2023-12-29T00:08:53;5.30;;;2.08;;
9388;SDS011;4734;52.778;6.798;2023-12-29T00:11:38;3.72;;;1.50;;
9388;SDS011;4734;52.778;6.798;2023-12-29T00:14:25;8.55;;;2.60;;
9388;SDS011;4734;52.778;6.798;2023-12-29T00:17:11;8.88;;;2.60;;
9388;SDS011;4734;52.778;6.798;2023-12-29T00:19:56;4.55;;;2.45;;
9388;SDS011;4734;52.778;6.798;2023-12-29T00:22:42;5.80;;;1.75;;
9388;SDS011;4734;52.778;6.798;2023-12-29T00:25:28;4.63;;;1.85;;
9388;SDS011;4734;52.778;6.798;2023-12-29T00:28:13;6.45;;;2.38;;
9388;SDS011;4734;52.778;6.798;2023-12-29T00:31:00;6.03;;;1.95;;
9388;SDS011;4734;52.778;6.798;2023-12-29T00:33:45;5.07;;;1.90;;
9388;SDS011;4734;52.778;6.798;2023-12-29T00:36:31;6.05;;;2.17;;
9388;SDS011;4734;52.778;6.798;2023-12-29T00:39:17;6.10;;;2.30;;
9388;SDS011;4734;52.778;6.798;2023-12-29T00:42:03;9.13;;;2.25;;
9388;SDS011;4734;52.778;6.798;2023-12-29T00:44:50;7.65;;;2.25;;
9388;SDS011;4734;52.778;6.798;2023-12-29T00:47:37;5.63;;;1.98;;
9388;SDS011;4734;52.778;6.798;2023-12-29T00:50:23;5.20;;;1.92;;
9388;SDS011;4734;52.778;6.798;2023-12-29T00:53:08;6.25;;;2.33;;
9388;SDS011;4734;52.778;6.798;2023-12-29T00:55:54;6.57;;;2.20;;
9388;SDS011;4734;52.778;6.798;2023-12-29T00:58:40;5.68;;;2.00;;
9388;SDS011;4734;52.778;6.798;2023-12-29T01:01:25;5.60;;;1.92;;
9388;SDS011;4734;52.778;6.798;2023-12-29T01:04:12;4.75;;;2.08;;
9388;SDS011;4734;52.778;6.798;2023-12-29T01:06:57;6.32;;;2.15;;
9388;SDS011;4734;52.778;6.798;2023-12-29T01:09:43;6.35;;;3.28;;
9388;SDS011;4734;52.778;6.798;2023-12-29T01:12:29;9.10;;;2.42;;
9388;SDS011;4734;52.778;6.798;2023-12-29T01:15:14;6.20;;;2.50;;
9388;SDS011;4734;52.778;6.798;2023-12-29T01:18:01;7.93;;;2.17;;
9388;SDS011;4734;52.778;6.798;2023-12-29T01:20:48;10.15;;;2.25;;
9388;SDS011;4734;52.778;6.798;2023-12-29T01:23:33;4.78;;;1.95;;
9388;SDS011;4734;52.778;6.798;2023-12-29T01:26:19;8.63;;;2.60;;
9388;SDS011;4734;52.778;6.798;2023-12-29T01:29:05;4.75;;;2.20;;
9388;SDS011;4734;52.778;6.798;2023-12-29T01:31:50;3.15;;;1.75;;
9388;SDS011;4734;52.778;6.798;2023-12-29T01:34:36;4.22;;;2.20;;
9388;SDS011;4734;52.778;6.798;2023-12-29T01:37:22;5.95;;;2.10;;
9388;SDS011;4734;52.778;6.798;2023-12-29T01:40:08;7.70;;;2.10;;
9388;SDS011;4734;52.778;6.798;2023-12-29T01:42:55;7.88;;;2.25;;
9388;SDS011;4734;52.778;6.798;2023-12-29T01:45:40;6.53;;;2.40;;
9388;SDS011;4734;52.778;6.798;2023-12-29T01:48:26;4.50;;;2.25;;
9388;SDS011;4734;52.778;6.798;2023-12-29T01:51:12;8.68;;;2.72;;
9388;SDS011;4734;52.778;6.798;2023-12-29T01:54:00;6.07;;;1.83;;
9388;SDS011;4734;52.778;6.798;2023-12-29T01:56:46;5.32;;;1.77;;
9388;SDS011;4734;52.778;6.798;2023-12-29T01:59:32;3.85;;;1.67;;
9388;SDS011;4734;52.778;6.798;2023-12-29T02:02:19;3.13;;;1.50;;
9388;SDS011;4734;52.778;6.798;2023-12-29T02:05:05;4.47;;;2.50;;
9388;SDS011;4734;52.778;6.798;2023-12-29T02:07:51;2.63;;;1.48;;
9388;SDS011;4734;52.778;6.798;2023-12-29T02:10:38;6.43;;;1.67;;
9388;SDS011;4734;52.778;6.798;2023-12-29T02:13:23;7.07;;;2.40;;
9388;SDS011;4734;52.778;6.798;2023-12-29T02:16:12;5.53;;;1.90;;
9388;SDS011;4734;52.778;6.798;2023-12-29T02:19:04;6.55;;;2.50;;
9388;SDS011;4734;52.778;6.798;2023-12-29T02:21:58;7.45;;;1.83;;
9388;SDS011;4734;52.778;6.798;2023-12-29T02:24:45;5.93;;;2.38;;
9388;SDS011;4734;52.778;6.798;2023-12-29T02:27:33;7.10;;;2.28;;
9388;SDS011;4734;52.778;6.798;2023-12-29T02:30:25;4.88;;;2.15;;
9388;SDS011;4734;52.778;6.798;2023-12-29T02:33:16;7.50;;;2.70;;
9388;SDS011;4734;52.778;6.798;2023-12-29T02:36:06;4.47;;;1.42;;
9388;SDS011;4734;52.778;6.798;2023-12-29T02:38:52;3.63;;;1.65;;
9388;SDS011;4734;52.778;6.798;2023-12-29T02:41:39;9.05;;;2.65;;
9388;SDS011;4734;52.778;6.798;2023-12-29T02:44:24;9.43;;;2.72;;
9388;SDS011;4734;52.778;6.798;2023-12-29T02:47:10;5.35;;;2.17;;
9388;SDS011;4734;52.778;6.798;2023-12-29T02:49:55;6.53;;;1.95;;
9388;SDS011;4734;52.778;6.798;2023-12-29T02:52:41;3.38;;;1.80;;
9388;SDS011;4734;52.778;6.798;2023-12-29T02:55:26;5.40;;;1.90;;
9388;SDS011;4734;52.778;6.798;2023-12-29T02:58:13;5.57;;;2.20;;
9388;SDS011;4734;52.778;6.798;2023-12-29T03:00:59;7.20;;;2.17;;
9388;SDS011;4734;52.778;6.798;2023-12-29T03:03:44;5.07;;;1.85;;
9388;SDS011;4734;52.778;6.798;2023-12-29T03:06:30;5.28;;;2.42;;
9388;SDS011;4734;52.778;6.798;2023-12-29T03:09:15;5.75;;;2.20;;
9388;SDS011;4734;52.778;6.798;2023-12-29T03:12:01;7.28;;;2.25;;
9388;SDS011;4734;52.778;6.798;2023-12-29T03:14:48;6.22;;;2.03;;
9388;SDS011;4734;52.778;6.798;2023-12-29T03:17:34;4.88;;;1.92;;
9388;SDS011;4734;52.778;6.798;2023-12-29T03:20:19;6.40;;;2.28;;
9388;SDS011;4734;52.778;6.798;2023-12-29T03:23:05;3.90;;;1.75;;
9388;SDS011;4734;52.778;6.798;2023-12-29T03:25:50;6.47;;;1.95;;
9388;SDS011;4734;52.778;6.798;2023-12-29T03:28:36;5.45;;;2.30;;
9388;SDS011;4734;52.778;6.798;2023-12-29T03:31:23;5.10;;;1.98;;
9388;SDS011;4734;52.778;6.798;2023-12-29T03:34:08;3.95;;;1.80;;
9388;SDS011;4734;52.778;6.798;2023-12-29T03:36:54;7.60;;;2.30;;
9388;SDS011;4734;52.778;6.798;2023-12-29T03:39:39;6.18;;;2.20;;
9388;SDS011;4734;52.778;6.798;2023-12-29T03:42:25;4.05;;;1.60;;
9388;SDS011;4734;52.778;6.798;2023-12-29T03:45:10;5.32;;;1.80;;
9388;SDS011;4734;52.778;6.798;2023-12-29T03:47:57;5.72;;;1.73;;
9388;SDS011;4734;52.778;6.798;2023-12-29T03:50:43;2.38;;;1.38;;
9388;SDS011;4734;52.778;6.798;2023-12-29T03:53:29;4.65;;;1.77;;
9388;SDS011;4734;52.778;6.798;2023-12-29T03:56:15;3.42;;;1.92;;
9388;SDS011;4734;52.778;6.798;2023-12-29T03:59:01;6.13;;;2.13;;
9388;SDS011;4734;52.778;6.798;2023-12-29T04:01:46;6.72;;;1.90;;
9388;SDS011;4734;52.778;6.798;2023-12-29T04:04:34;9.43;;;2.28;;
9388;SDS011;4734;52.778;6.798;2023-12-29T04:07:21;4.05;;;1.75;;
9388;SDS011;4734;52.778;6.798;2023-12-29T04:10:07;4.18;;;2.00;;
9388;SDS011;4734;52.778;6.798;2023-12-29T04:12:53;4.72;;;1.83;;
9388;SDS011;4734;52.778;6.798;2023-12-29T04:15:38;5.93;;;2.13;;
9388;SDS011;4734;52.778;6.798;2023-12-29T04:18:24;5.57;;;2.28;;
9388;SDS011;4734;52.778;6.798;2023-12-29T04:21:14;6.28;;;2.17;;
9388;SDS011;4734;52.778;6.798;2023-12-29T04:23:59;5.47;;;2.05;;
9388;SDS011;4734;52.778;6.798;2023-12-29T04:26:46;6.70;;;2.25;;
9388;SDS011;4734;52.778;6.798;2023-12-29T04:29:31;5.10;;;2.25;;
9388;SDS011;4734;52.778;6.798;2023-12-29T04:32:17;6.88;;;2.10;;
9388;SDS011;4734;52.778;6.798;2023-12-29T04:35:02;10.95;;;2.83;;
9388;SDS011;4734;52.778;6.798;2023-12-29T04:37:50;5.45;;;2.30;;
9388;SDS011;4734;52.778;6.798;2023-12-29T04:40:36;7.72;;;2.10;;
9388;SDS011;4734;52.778;6.798;2023-12-29T04:43:21;6.32;;;2.13;;
9388;SDS011;4734;52.778;6.798;2023-12-29T04:46:07;10.85;;;1.95;;
9388;SDS011;4734;52.778;6.798;2023-12-29T04:48:52;8.35;;;2.88;;
9388;SDS011;4734;52.778;6.798;2023-12-29T04:51:38;12.15;;;2.75;;
9388;SDS011;4734;52.778;6.798;2023-12-29T04:54:25;9.63;;;2.40;;
9388;SDS011;4734;52.778;6.798;2023-12-29T04:57:10;9.07;;;2.45;;
9388;SDS011;4734;52.778;6.798;2023-12-29T04:59:56;4.03;;;1.77;;
9388;SDS011;4734;52.778;6.798;2023-12-29T05:02:41;12.18;;;2.50;;
9388;SDS011;4734;52.778;6.798;2023-12-29T05:05:27;6.38;;;2.05;;
9388;SDS011;4734;52.778;6.798;2023-12-29T05:08:12;8.25;;;2.28;;
9388;SDS011;4734;52.778;6.798;2023-12-29T05:10:59;6.43;;;2.10;;
9388;SDS011;4734;52.778;6.798;2023-12-29T05:13:45;5.90;;;2.10;;
9388;SDS011;4734;52.778;6.798;2023-12-29T05:16:30;14.82;;;2.38;;
9388;SDS011;4734;52.778;6.798;2023-12-29T05:19:16;8.45;;;2.42;;
9388;SDS011;4734;52.778;6.798;2023-12-29T05:22:02;6.85;;;2.20;;
9388;SDS011;4734;52.778;6.798;2023-12-29T05:24:47;13.00;;;3.20;;
9388;SDS011;4734;52.778;6.798;2023-12-29T05:27:34;12.32;;;2.58;;
9388;SDS011;4734;52.778;6.798;2023-12-29T05:30:20;4.88;;;2.40;;
9388;SDS011;4734;52.778;6.798;2023-12-29T05:33:05;4.82;;;2.33;;
9388;SDS011;4734;52.778;6.798;2023-12-29T05:35:51;11.02;;;2.72;;
9388;SDS011;4734;52.778;6.798;2023-12-29T05:38:37;7.93;;;2.58;;
9388;SDS011;4734;52.778;6.798;2023-12-29T05:41:23;9.57;;;2.75;;
9388;SDS011;4734;52.778;6.798;2023-12-29T05:44:10;6.68;;;2.33;;
9388;SDS011;4734;52.778;6.798;2023-12-29T05:46:56;9.10;;;2.83;;
9388;SDS011;4734;52.778;6.798;2023-12-29T05:49:41;13.05;;;2.83;;
9388;SDS011;4734;52.778;6.798;2023-12-29T05:52:27;10.35;;;2.53;;
9388;SDS011;4734;52.778;6.798;2023-12-29T05:55:12;9.93;;;2.35;;
9388;SDS011;4734;52.778;6.798;2023-12-29T05:57:58;6.75;;;2.40;;
9388;SDS011;4734;52.778;6.798;2023-12-29T06:00:45;11.50;;;2.60;;
9388;SDS011;4734;52.778;6.798;2023-12-29T06:03:30;13.50;;;3.33;;
9388;SDS011;4734;52.778;6.798;2023-12-29T06:06:16;11.85;;;3.15;;
9388;SDS011;4734;52.778;6.798;2023-12-29T06:09:01;7.60;;;2.60;;
9388;SDS011;4734;52.778;6.798;2023-12-29T06:11:47;6.97;;;2.35;;
9388;SDS011;4734;52.778;6.798;2023-12-29T06:14:33;12.23;;;3.15;;
9388;SDS011;4734;52.778;6.798;2023-12-29T06:17:22;8.70;;;3.03;;
9388;SDS011;4734;52.778;6.798;2023-12-29T06:20:07;13.52;;;2.85;;
9388;SDS011;4734;52.778;6.798;2023-12-29T06:22:54;11.90;;;2.85;;
9388;SDS011;4734;52.778;6.798;2023-12-29T06:25:40;11.32;;;2.65;;
9388;SDS011;4734;52.778;6.798;2023-12-29T06:28:26;13.68;;;3.33;;
9388;SDS011;4734;52.778;6.798;2023-12-29T06:31:12;11.57;;;3.17;;
9388;SDS011;4734;52.778;6.798;2023-12-29T06:33:59;9.73;;;2.78;;
9388;SDS011;4734;52.778;6.798;2023-12-29T06:36:45;8.10;;;2.92;;
9388;SDS011;4734;52.778;6.798;2023-12-29T06:39:30;7.15;;;2.47;;
9388;SDS011;4734;52.778;6.798;2023-12-29T06:42:16;8.77;;;2.38;;
9388;SDS011;4734;52.778;6.798;2023-12-29T06:45:01;9.05;;;2.70;;
9388;SDS011;4734;52.778;6.798;2023-12-29T06:47:47;12.70;;;3.38;;
9388;SDS011;4734;52.778;6.798;2023-12-29T06:50:35;8.68;;;3.10;;
9388;SDS011;4734;52.778;6.798;2023-12-29T06:53:20;10.68;;;2.50;;
9388;SDS011;4734;52.778;6.798;2023-12-29T06:56:06;10.88;;;2.85;;
9388;SDS011;4734;52.778;6.798;2023-12-29T06:58:52;10.13;;;2.25;;
9388;SDS011;4734;52.778;6.798;2023-12-29T07:01:38;15.50;;;3.40;;
9388;SDS011;4734;52.778;6.798;2023-12-29T07:04:24;11.75;;;3.35;;
9388;SDS011;4734;52.778;6.798;2023-12-29T07:07:11;12.60;;;3.13;;
9388;SDS011;4734;52.778;6.798;2023-12-29T07:09:57;7.45;;;2.80;;
9388;SDS011;4734;52.778;6.798;2023-12-29T07:12:42;16.45;;;3.38;;
9388;SDS011;4734;52.778;6.798;2023-12-29T07:15:28;16.60;;;3.10;;
9388;SDS011;4734;52.778;6.798;2023-12-29T07:18:13;8.75;;;2.65;;
9388;SDS011;4734;52.778;6.798;2023-12-29T07:20:59;8.90;;;2.88;;
9388;SDS011;4734;52.778;6.798;2023-12-29T07:23:46;9.27;;;2.90;;
9388;SDS011;4734;52.778;6.798;2023-12-29T07:26:32;11.57;;;2.80;;
9388;SDS011;4734;52.778;6.798;2023-12-29T07:29:18;15.10;;;3.10;;
9388;SDS011;4734;52.778;6.798;2023-12-29T07:32:04;13.77;;;4.10;;
9388;SDS011;4734;52.778;6.798;2023-12-29T07:34:50;11.43;;;4.25;;
9388;SDS011;4734;52.778;6.798;2023-12-29T07:37:35;8.13;;;2.50;;
9388;SDS011;4734;52.778;6.798;2023-12-29T07:40:22;9.00;;;3.17;;
9388;SDS011;4734;52.778;6.798;2023-12-29T07:43:08;10.68;;;3.42;;
9388;SDS011;4734;52.778;6.798;2023-12-29T07:45:53;9.23;;;2.30;;
9388;SDS011;4734;52.778;6.798;2023-12-29T07:48:39;11.95;;;3.20;;
9388;SDS011;4734;52.778;6.798;2023-12-29T07:51:24;13.48;;;2.80;;
9388;SDS011;4734;52.778;6.798;2023-12-29T07:54:09;8.95;;;3.55;;
9388;SDS011;4734;52.778;6.798;2023-12-29T07:56:56;8.63;;;2.65;;
9388;SDS011;4734;52.778;6.798;2023-12-29T07:59:42;10.02;;;2.88;;
9388;SDS011;4734;52.778;6.798;2023-12-29T08:02:28;10.60;;;3.05;;
9388;SDS011;4734;52.778;6.798;2023-12-29T08:05:16;15.40;;;3.50;;
9388;SDS011;4734;52.778;6.798;2023-12-29T08:11:43;8.90;;;2.67;;
9388;SDS011;4734;52.778;6.798;2023-12-29T08:14:32;20.23;;;2.80;;
9388;SDS011;4734;52.778;6.798;2023-12-29T08:21:02;7.55;;;2.38;;
9388;SDS011;4734;52.778;6.798;2023-12-29T08:23:47;6.90;;;2.22;;
9388;SDS011;4734;52.778;6.798;2023-12-29T08:26:43;9.95;;;2.30;;
9388;SDS011;4734;52.778;6.798;2023-12-29T08:29:53;14.05;;;3.08;;
9388;SDS011;4734;52.778;6.798;2023-12-29T08:32:40;9.15;;;2.65;;
9388;SDS011;4734;52.778;6.798;2023-12-29T08:38:45;10.05;;;2.78;;
9388;SDS011;4734;52.778;6.798;2023-12-29T08:41:31;6.93;;;2.45;;
9388;SDS011;4734;52.778;6.798;2023-12-29T08:44:26;8.13;;;2.85;;
9388;SDS011;4734;52.778;6.798;2023-12-29T08:51:19;5.97;;;2.47;;
9388;SDS011;4734;52.778;6.798;2023-12-29T08:54:04;9.05;;;2.60;;
9388;SDS011;4734;52.778;6.798;2023-12-29T08:56:50;7.25;;;2.25;;
9388;SDS011;4734;52.778;6.798;2023-12-29T08:59:36;7.97;;;2.85;;
9388;SDS011;4734;52.778;6.798;2023-12-29T09:02:21;9.43;;;2.70;;
9388;SDS011;4734;52.778;6.798;2023-12-29T09:05:07;12.10;;;2.88;;
9388;SDS011;4734;52.778;6.798;2023-12-29T09:07:54;6.13;;;2.25;;
9388;SDS011;4734;52.778;6.798;2023-12-29T09:10:40;8.07;;;2.25;;
9388;SDS011;4734;52.778;6.798;2023-12-29T09:13:25;11.95;;;2.53;;
9388;SDS011;4734;52.778;6.798;2023-12-29T09:16:14;9.40;;;2.72;;
9388;SDS011;4734;52.778;6.798;2023-12-29T09:19:00;5.60;;;1.88;;
9388;SDS011;4734;52.778;6.798;2023-12-29T09:21:45;5.15;;;2.00;;
9388;SDS011;4734;52.778;6.798;2023-12-29T09:24:32;6.55;;;2.78;;
9388;SDS011;4734;52.778;6.798;2023-12-29T09:27:18;3.30;;;1.90;;
9388;SDS011;4734;52.778;6.798;2023-12-29T09:30:04;6.15;;;1.90;;
9388;SDS011;4734;52.778;6.798;2023-12-29T09:32:50;7.25;;;2.30;;
9388;SDS011;4734;52.778;6.798;2023-12-29T09:35:35;7.18;;;2.38;;
9388;SDS011;4734;52.778;6.798;2023-12-29T09:38:21;3.88;;;1.95;;
9388;SDS011;4734;52.778;6.798;2023-12-29T09:41:11;5.88;;;2.28;;
9388;SDS011;4734;52.778;6.798;2023-12-29T09:44:02;5.72;;;2.28;;
9388;SDS011;4734;52.778;6.798;2023-12-29T09:46:53;7.80;;;2.35;;
9388;SDS011;4734;52.778;6.798;2023-12-29T09:49:39;3.20;;;1.50;;
9388;SDS011;4734;52.778;6.798;2023-12-29T09:52:26;2.17;;;1.40;;
9388;SDS011;4734;52.778;6.798;2023-12-29T09:55:13;7.07;;;2.10;;
9388;SDS011;4734;52.778;6.798;2023-12-29T09:58:01;6.95;;;1.75;;
9388;SDS011;4734;52.778;6.798;2023-12-29T10:00:47;3.33;;;1.60;;
9388;SDS011;4734;52.778;6.798;2023-12-29T10:03:34;5.47;;;1.80;;
9388;SDS011;4734;52.778;6.798;2023-12-29T10:06:23;3.72;;;1.33;;
9388;SDS011;4734;52.778;6.798;2023-12-29T10:23:47;4.00;;;1.60;;
9388;SDS011;4734;52.778;6.798;2023-12-29T10:26:39;4.68;;;1.65;;
9388;SDS011;4734;52.778;6.798;2023-12-29T10:33:21;6.40;;;1.40;;
9388;SDS011;4734;52.778;6.798;2023-12-29T10:40:40;0.60;;;0.60;;
9388;SDS011;4734;52.778;6.798;2023-12-29T10:51:29;0.50;;;0.50;;
9388;SDS011;4734;52.778;6.798;2023-12-29T12:00:53;4.63;;;1.80;;
9388;SDS011;4734;52.778;6.798;2023-12-29T12:11:48;4.03;;;1.75;;
9388;SDS011;4734;52.778;6.798;2023-12-29T12:15:11;7.43;;;2.42;;
9388;SDS011;4734;52.778;6.798;2023-12-29T12:18:39;2.85;;;1.70;;
9388;SDS011;4734;52.778;6.798;2023-12-29T12:29:36;5.73;;;1.67;;
9388;SDS011;4734;52.778;6.798;2023-12-29T12:33:04;6.60;;;1.90;;
9388;SDS011;4734;52.778;6.798;2023-12-29T12:47:54;3.53;;;1.65;;
9388;SDS011;4734;52.778;6.798;2023-12-29T12:54:56;7.28;;;1.77;;
9388;SDS011;4734;52.778;6.798;2023-12-29T13:01:56;8.85;;;1.65;;
9388;SDS011;4734;52.778;6.798;2023-12-29T13:05:20;7.40;;;1.60;;
9388;SDS011;4734;52.778;6.798;2023-12-29T13:12:51;7.22;;;1.75;;
9388;SDS011;4734;52.778;6.798;2023-12-29T13:15:50;3.20;;;2.08;;
9388;SDS011;4734;52.778;6.798;2023-12-29T13:37:31;4.90;;;1.40;;
9388;SDS011;4734;52.778;6.798;2023-12-29T13:59:33;8.43;;;1.83;;
9388;SDS011;4734;52.778;6.798;2023-12-29T14:02:31;4.13;;;1.50;;
9388;SDS011;4734;52.778;6.798;2023-12-29T14:05:18;1.73;;;0.70;;
9388;SDS011;4734;52.778;6.798;2023-12-29T14:08:10;6.63;;;1.15;;
9388;SDS011;4734;52.778;6.798;2023-12-29T14:11:06;4.63;;;1.30;;
9388;SDS011;4734;52.778;6.798;2023-12-29T14:13:53;6.20;;;1.92;;
9388;SDS011;4734;52.778;6.798;2023-12-29T14:16:41;6.40;;;1.45;;
9388;SDS011;4734;52.778;6.798;2023-12-29T14:19:33;4.00;;;1.77;;
9388;SDS011;4734;52.778;6.798;2023-12-29T14:22:21;4.25;;;1.65;;
9388;SDS011;4734;52.778;6.798;2023-12-29T14:25:07;6.07;;;1.23;;
9388;SDS011;4734;52.778;6.798;2023-12-29T14:27:52;8.63;;;2.03;;
9388;SDS011;4734;52.778;6.798;2023-12-29T14:30:38;4.72;;;1.35;;
9388;SDS011;4734;52.778;6.798;2023-12-29T14:33:25;4.55;;;1.75;;
9388;SDS011;4734;52.778;6.798;2023-12-29T14:36:11;3.97;;;1.85;;
9388;SDS011;4734;52.778;6.798;2023-12-29T14:38:56;4.90;;;1.40;;
9388;SDS011;4734;52.778;6.798;2023-12-29T14:41:42;10.02;;;1.83;;
9388;SDS011;4734;52.778;6.798;2023-12-29T14:44:29;5.30;;;1.92;;
9388;SDS011;4734;52.778;6.798;2023-12-29T14:47:15;5.55;;;1.63;;
9388;SDS011;4734;52.778;6.798;2023-12-29T14:50:03;5.07;;;1.83;;
9388;SDS011;4734;52.778;6.798;2023-12-29T14:52:49;7.15;;;2.28;;
9388;SDS011;4734;52.778;6.798;2023-12-29T14:55:35;3.97;;;1.63;;
9388;SDS011;4734;52.778;6.798;2023-12-29T14:58:22;3.65;;;1.67;;
9388;SDS011;4734;52.778;6.798;2023-12-29T15:01:08;6.03;;;1.67;;
9388;SDS011;4734;52.778;6.798;2023-12-29T15:03:53;2.65;;;1.42;;
9388;SDS011;4734;52.778;6.798;2023-12-29T15:06:40;9.07;;;2.00;;
9388;SDS011;4734;52.778;6.798;2023-12-29T15:09:27;3.55;;;1.52;;
9388;SDS011;4734;52.778;6.798;2023-12-29T15:12:12;3.55;;;1.60;;
9388;SDS011;4734;52.778;6.798;2023-12-29T15:14:58;3.70;;;1.88;;
9388;SDS011;4734;52.778;6.798;2023-12-29T15:17:43;4.38;;;0.82;;
9388;SDS011;4734;52.778;6.798;2023-12-29T15:20:29;5.13;;;1.30;;
9388;SDS011;4734;52.778;6.798;2023-12-29T15:23:18;6.97;;;1.80;;
9388;SDS011;4734;52.778;6.798;2023-12-29T15:26:03;5.30;;;1.85;;
9388;SDS011;4734;52.778;6.798;2023-12-29T15:28:49;4.43;;;1.60;;
9388;SDS011;4734;52.778;6.798;2023-12-29T15:31:35;4.03;;;1.95;;
9388;SDS011;4734;52.778;6.798;2023-12-29T15:34:21;2.00;;;1.55;;
9388;SDS011;4734;52.778;6.798;2023-12-29T15:37:06;6.53;;;1.45;;
9388;SDS011;4734;52.778;6.798;2023-12-29T15:39:54;5.72;;;1.65;;
9388;SDS011;4734;52.778;6.798;2023-12-29T15:42:39;4.63;;;1.27;;
9388;SDS011;4734;52.778;6.798;2023-12-29T15:45:25;2.22;;;0.98;;
9388;SDS011;4734;52.778;6.798;2023-12-29T15:48:10;4.25;;;2.03;;
9388;SDS011;4734;52.778;6.798;2023-12-29T15:50:56;5.65;;;2.05;;
9388;SDS011;4734;52.778;6.798;2023-12-29T15:53:41;3.97;;;2.03;;
9388;SDS011;4734;52.778;6.798;2023-12-29T15:56:28;3.78;;;1.48;;
9388;SDS011;4734;52.778;6.798;2023-12-29T15:59:14;2.92;;;1.25;;
9388;SDS011;4734;52.778;6.798;2023-12-29T16:01:59;1.73;;;0.98;;
9388;SDS011;4734;52.778;6.798;2023-12-29T16:04:45;2.03;;;0.85;;
9388;SDS011;4734;52.778;6.798;2023-12-29T16:07:30;2.53;;;0.95;;
9388;SDS011;4734;52.778;6.798;2023-12-29T16:10:16;1.17;;;0.80;;
9388;SDS011;4734;52.778;6.798;2023-12-29T16:13:03;2.75;;;0.60;;
9388;SDS011;4734;52.778;6.798;2023-12-29T16:15:49;3.47;;;0.88;;
9388;SDS011;4734;52.778;6.798;2023-12-29T16:18:34;3.35;;;0.85;;
9388;SDS011;4734;52.778;6.798;2023-12-29T16:21:20;3.38;;;0.95;;
9388;SDS011;4734;52.778;6.798;2023-12-29T16:24:07;1.27;;;0.80;;
9388;SDS011;4734;52.778;6.798;2023-12-29T16:26:53;1.42;;;1.17;;
9388;SDS011;4734;52.778;6.798;2023-12-29T16:29:41;2.22;;;0.73;;
9388;SDS011;4734;52.778;6.798;2023-12-29T16:32:27;1.90;;;0.90;;
9388;SDS011;4734;52.778;6.798;2023-12-29T16:35:16;1.13;;;0.93;;
9388;SDS011;4734;52.778;6.798;2023-12-29T16:38:03;2.72;;;1.02;;
9388;SDS011;4734;52.778;6.798;2023-12-29T16:40:50;3.13;;;0.90;;
9388;SDS011;4734;52.778;6.798;2023-12-29T16:43:38;3.08;;;1.15;;
9388;SDS011;4734;52.778;6.798;2023-12-29T16:46:25;2.35;;;0.90;;
9388;SDS011;4734;52.778;6.798;2023-12-29T16:49:11;4.85;;;1.15;;
9388;SDS011;4734;52.778;6.798;2023-12-29T16:51:56;6.35;;;1.17;;
9388;SDS011;4734;52.778;6.798;2023-12-29T16:54:42;1.30;;;1.00;;
9388;SDS011;4734;52.778;6.798;2023-12-29T16:57:28;3.10;;;0.88;;
9388;SDS011;4734;52.778;6.798;2023-12-29T17:00:14;2.30;;;1.23;;
9388;SDS011;4734;52.778;6.798;2023-12-29T17:03:01;1.50;;;0.90;;
9388;SDS011;4734;52.778;6.798;2023-12-29T17:05:46;3.13;;;1.30;;
9388;SDS011;4734;52.778;6.798;2023-12-29T17:08:32;2.85;;;1.20;;
9388;SDS011;4734;52.778;6.798;2023-12-29T17:11:19;1.23;;;0.98;;
9388;SDS011;4734;52.778;6.798;2023-12-29T17:14:05;1.45;;;1.17;;
9388;SDS011;4734;52.778;6.798;2023-12-29T17:16:50;2.95;;;0.90;;
9388;SDS011;4734;52.778;6.798;2023-12-29T17:19:38;1.90;;;1.40;;
9388;SDS011;4734;52.778;6.798;2023-12-29T17:22:24;4.03;;;1.23;;
9388;SDS011;4734;52.778;6.798;2023-12-29T17:25:10;1.30;;;1.20;;
9388;SDS011;4734;52.778;6.798;2023-12-29T17:27:55;2.17;;;1.02;;
9388;SDS011;4734;52.778;6.798;2023-12-29T17:30:41;1.85;;;1.20;;
9388;SDS011;4734;52.778;6.798;2023-12-29T17:33:27;1.88;;;0.88;;
9388;SDS011;4734;52.778;6.798;2023-12-29T17:36:14;2.75;;;1.33;;
9388;SDS011;4734;52.778;6.798;2023-12-29T17:38:59;2.15;;;1.02;;
9388;SDS011;4734;52.778;6.798;2023-12-29T17:41:46;2.42;;;1.23;;
9388;SDS011;4734;52.778;6.798;2023-12-29T17:44:32;3.55;;;1.00;;
9388;SDS011;4734;52.778;6.798;2023-12-29T17:47:18;0.95;;;0.70;;
9388;SDS011;4734;52.778;6.798;2023-12-29T17:50:05;5.18;;;1.50;;
9388;SDS011;4734;52.778;6.798;2023-12-29T17:52:53;1.75;;;0.98;;
9388;SDS011;4734;52.778;6.798;2023-12-29T17:55:38;2.15;;;1.30;;
9388;SDS011;4734;52.778;6.798;2023-12-29T17:58:24;2.40;;;1.75;;
9388;SDS011;4734;52.778;6.798;2023-12-29T18:01:12;3.08;;;1.70;;
9388;SDS011;4734;52.778;6.798;2023-12-29T18:03:57;1.77;;;1.40;;
9388;SDS011;4734;52.778;6.798;2023-12-29T18:06:43;1.63;;;1.00;;
9388;SDS011;4734;52.778;6.798;2023-12-29T18:09:30;4.75;;;1.50;;
9388;SDS011;4734;52.778;6.798;2023-12-29T18:12:15;3.53;;;1.27;;
9388;SDS011;4734;52.778;6.798;2023-12-29T18:15:00;3.40;;;1.10;;
9388;SDS011;4734;52.778;6.798;2023-12-29T18:17:46;2.45;;;1.40;;
9388;SDS011;4734;52.778;6.798;2023-12-29T18:20:31;4.43;;;1.35;;
9388;SDS011;4734;52.778;6.798;2023-12-29T18:23:17;3.45;;;1.70;;
9388;SDS011;4734;52.778;6.798;2023-12-29T18:26:05;1.70;;;0.93;;
9388;SDS011;4734;52.778;6.798;2023-12-29T18:28:51;2.55;;;1.00;;
9388;SDS011;4734;52.778;6.798;2023-12-29T18:31:40;4.88;;;1.27;;
9388;SDS011;4734;52.778;6.798;2023-12-29T18:34:26;3.13;;;1.10;;
9388;SDS011;4734;52.778;6.798;2023-12-29T18:37:11;2.10;;;0.95;;
9388;SDS011;4734;52.778;6.798;2023-12-29T18:39:57;1.60;;;1.00;;
9388;SDS011;4734;52.778;6.798;2023-12-29T18:42:44;1.55;;;1.10;;
9388;SDS011;4734;52.778;6.798;2023-12-29T18:45:29;1.73;;;1.10;;
9388;SDS011;4734;52.778;6.798;2023-12-29T18:48:15;3.00;;;1.15;;
9388;SDS011;4734;52.778;6.798;2023-12-29T18:51:01;4.30;;;1.20;;
9388;SDS011;4734;52.778;6.798;2023-12-29T18:53:47;1.67;;;1.20;;
9388;SDS011;4734;52.778;6.798;2023-12-29T18:56:32;2.55;;;1.17;;
9388;SDS011;4734;52.778;6.798;2023-12-29T18:59:19;2.38;;;1.13;;
9388;SDS011;4734;52.778;6.798;2023-12-29T19:02:04;3.25;;;1.13;;
9388;SDS011;4734;52.778;6.798;2023-12-29T19:04:52;1.20;;;0.93;;
9388;SDS011;4734;52.778;6.798;2023-12-29T19:07:37;1.83;;;1.10;;
9388;SDS011;4734;52.778;6.798;2023-12-29T19:10:23;2.00;;;1.23;;
9388;SDS011;4734;52.778;6.798;2023-12-29T19:13:09;2.63;;;1.25;;
9388;SDS011;4734;52.778;6.798;2023-12-29T19:15:56;2.60;;;1.20;;
9388;SDS011;4734;52.778;6.798;2023-12-29T19:18:43;1.57;;;1.37;;
9388;SDS011;4734;52.778;6.798;2023-12-29T19:21:29;4.53;;;1.10;;
9388;SDS011;4734;52.778;6.798;2023-12-29T19:24:16;2.58;;;1.30;;
9388;SDS011;4734;52.778;6.798;2023-12-29T19:27:02;1.60;;;1.10;;
9388;SDS011;4734;52.778;6.798;2023-12-29T19:29:48;2.95;;;1.33;;
9388;SDS011;4734;52.778;6.798;2023-12-29T19:32:35;4.65;;;1.75;;
9388;SDS011;4734;52.778;6.798;2023-12-29T19:35:20;2.92;;;1.17;;
9388;SDS011;4734;52.778;6.798;2023-12-29T19:38:06;3.13;;;1.40;;
9388;SDS011;4734;52.778;6.798;2023-12-29T19:40:51;1.85;;;1.40;;
9388;SDS011;4734;52.778;6.798;2023-12-29T19:43:38;5.35;;;1.95;;
9388;SDS011;4734;52.778;6.798;2023-12-29T19:46:24;3.25;;;1.63;;
9388;SDS011;4734;52.778;6.798;2023-12-29T19:49:11;2.40;;;1.50;;
9388;SDS011;4734;52.778;6.798;2023-12-29T19:51:57;3.47;;;1.33;;
9388;SDS011;4734;52.778;6.798;2023-12-29T19:54:42;3.30;;;1.55;;
9388;SDS011;4734;52.778;6.798;2023-12-29T19:57:28;2.10;;;1.25;;
9388;SDS011;4734;52.778;6.798;2023-12-29T20:00:14;4.07;;;1.52;;
9388;SDS011;4734;52.778;6.798;2023-12-29T20:03:00;1.50;;;1.40;;
9388;SDS011;4734;52.778;6.798;2023-12-29T20:05:47;2.15;;;1.58;;
9388;SDS011;4734;52.778;6.798;2023-12-29T20:08:32;4.18;;;1.70;;
9388;SDS011;4734;52.778;6.798;2023-12-29T20:11:18;3.73;;;1.70;;
9388;SDS011;4734;52.778;6.798;2023-12-29T20:14:04;1.73;;;1.33;;
9388;SDS011;4734;52.778;6.798;2023-12-29T20:16:51;1.23;;;1.10;;
9388;SDS011;4734;52.778;6.798;2023-12-29T20:19:36;3.35;;;1.40;;
9388;SDS011;4734;52.778;6.798;2023-12-29T20:22:23;2.63;;;1.63;;
9388;SDS011;4734;52.778;6.798;2023-12-29T20:25:10;2.20;;;1.40;;
9388;SDS011;4734;52.778;6.798;2023-12-29T20:27:55;3.23;;;1.30;;